Time;durP1;ratioP1;P1;durP2;ratioP2;P2;SDS_P1;SDS_P2;PMS_P1;PMS_P2;Temp;Humidity;BMP_temperature;BMP_pressure;BME280_temperature;BME280_humidity;BME280_pressure;Samples;Min_cycle;Max_cycle;Signal;HPM_P1;HPM_P2
2022/10/02 00:01:18;;;;;;;;;;;10.70;99.90;;;;;;5128569;28;19927;-54
2022/10/02 00:03:46;;;;;;;;;;;10.60;99.90;;;;;;5092379;28;19928;-54
2022/10/02 00:06:20;;;;;;;;;;;10.60;99.90;;;;;;5097282;28;20291;-54
2022/10/02 00:08:50;;;;;;;;;;;10.60;99.90;;;;;;5075199;28;19932;-54
2022/10/02 00:11:26;;;;;;;;;;;10.50;99.90;;;;;;5108608;28;19924;-54
2022/10/02 00:13:57;;;;;;;;;;;10.50;99.90;;;;;;5098265;28;19939;-54
2022/10/02 00:16:38;;;;;;;;;;;10.40;99.90;;;;;;5094801;28;19932;-54
2022/10/02 00:19:10;;;;;;;;;;;10.30;99.90;;;;;;5100213;28;19931;-54
2022/10/02 00:21:43;;;;;;;;;;;10.20;99.90;;;;;;5108869;28;19940;-54
2022/10/02 00:24:13;;;;;;;;;;;10.20;99.90;;;;;;5107976;28;19931;-54
2022/10/02 00:26:48;;;;;;;;;;;10.10;99.90;;;;;;5108036;28;19923;-54
2022/10/02 00:29:26;;;;;;;;;;;10.00;99.90;;;;;;5109364;28;19931;-54
2022/10/02 00:31:56;;;;;;;;;;;10.00;99.90;;;;;;5106006;28;19924;-54
2022/10/02 00:34:36;;;;;;;;;;;9.90;99.90;;;;;;5103362;28;19931;-54
2022/10/02 00:37:10;;;;;;;;;;;9.90;99.90;;;;;;5108391;28;20393;-54
2022/10/02 00:39:59;;;;;;;;;;;9.90;99.90;;;;;;5126200;27;19924;-55
2022/10/02 00:42:29;;;;;;;;;;;9.80;99.90;;;;;;5123073;27;20295;-54
2022/10/02 00:45:00;;;;;;;;;;;9.80;99.90;;;;;;5112152;28;19924;-54
2022/10/02 00:47:46;;;;;;;;;;;9.80;99.90;;;;;;5111511;28;19935;-54
2022/10/02 00:50:20;;;;;;;;;;;9.80;99.90;;;;;;5102229;28;20287;-55
2022/10/02 00:53:07;;;;;;;;;;;9.70;99.90;;;;;;5095539;27;19931;-55
2022/10/02 00:55:40;;;;;;;;;;;9.80;99.90;;;;;;5118062;27;19938;-54
2022/10/02 00:58:08;;;;;;;;;;;9.80;99.90;;;;;;5091897;27;19924;-55
2022/10/02 01:00:35;;;;;;;;;;;9.70;99.90;;;;;;5132823;27;19927;-54
2022/10/02 01:03:06;;;;;;;;;;;9.70;99.90;;;;;;5115791;27;19930;-55
2022/10/02 01:05:33;;;;;;;;;;;9.70;99.90;;;;;;5108643;28;19931;-54
2022/10/02 01:08:01;;;;;;;;;;;9.80;99.90;;;;;;5095607;27;19934;-55
2022/10/02 01:10:29;;;;;;;;;;;9.80;99.90;;;;;;5131915;27;20310;-54
2022/10/02 01:12:57;;;;;;;;;;;9.70;99.90;;;;;;5107982;27;20016;-54
2022/10/02 01:15:32;;;;;;;;;;;9.70;99.90;;;;;;5111819;28;19930;-54
2022/10/02 01:18:01;;;;;;;;;;;9.70;99.90;;;;;;5093238;28;19931;-54
2022/10/02 01:20:28;;;;;;;;;;;9.70;99.90;;;;;;5111260;28;19928;-55
2022/10/02 01:23:02;;;;;;;;;;;9.70;99.90;;;;;;5092726;28;19939;-55
2022/10/02 01:25:29;;;;;;;;;;;9.60;99.90;;;;;;5110859;28;19931;-55
2022/10/02 01:27:57;;;;;;;;;;;9.60;99.90;;;;;;5109617;27;20371;-55
2022/10/02 01:30:29;;;;;;;;;;;9.60;99.90;;;;;;5128723;27;20524;-55
2022/10/02 01:32:58;;;;;;;;;;;9.50;99.90;;;;;;5105331;28;19930;-54
2022/10/02 01:35:30;;;;;;;;;;;9.50;99.90;;;;;;5114356;28;20410;-54
2022/10/02 01:37:59;;;;;;;;;;;9.50;99.90;;;;;;5095169;28;19930;-55
2022/10/02 01:40:28;;;;;;;;;;;9.50;99.90;;;;;;5124290;27;20286;-54
2022/10/02 01:42:58;;;;;;;;;;;9.50;99.90;;;;;;5116690;27;19931;-54
2022/10/02 01:45:38;;;;;;;;;;;9.50;99.90;;;;;;5122875;27;19924;-55
2022/10/02 01:48:41;;;;;;;;;;;9.50;99.90;;;;;;5093876;28;20291;-54
2022/10/02 01:51:17;;;;;;;;;;;9.50;99.90;;;;;;4991068;28;19933;-54
2022/10/02 01:53:44;;;;;;;;;;;9.50;99.90;;;;;;5080084;28;19928;-54
2022/10/02 01:56:21;;;;;;;;;;;9.50;99.90;;;;;;5114070;28;19928;-54
2022/10/02 01:59:16;;;;;;;;;;;9.60;99.90;;;;;;5112640;28;20367;-54
2022/10/02 02:02:07;;;;;;;;;;;9.60;99.90;;;;;;5111796;28;19924;-54
2022/10/02 02:04:44;;;;;;;;;;;9.70;99.90;;;;;;5066943;28;19924;-54
2022/10/02 02:07:24;;;;;;;;;;;9.70;99.90;;;;;;5111516;28;20020;-54
2022/10/02 02:10:01;;;;;;;;;;;9.70;99.90;;;;;;5105711;27;19923;-54
2022/10/02 02:13:06;;;;;;;;;;;9.80;99.90;;;;;;5134447;27;19924;-54
2022/10/02 02:15:37;;;;;;;;;;;9.70;99.90;;;;;;5029624;28;19932;-54
2022/10/02 02:18:16;;;;;;;;;;;9.80;99.90;;;;;;5030595;28;20025;-54
2022/10/02 02:20:50;;;;;;;;;;;9.80;99.90;;;;;;5089962;27;19924;-54
2022/10/02 02:23:24;;;;;;;;;;;9.80;99.90;;;;;;5132964;27;20363;-54
2022/10/02 02:25:53;;;;;;;;;;;9.80;99.90;;;;;;5094902;28;19924;-54
2022/10/02 02:28:22;;;;;;;;;;;9.90;99.90;;;;;;5113527;28;19981;-54
2022/10/02 02:30:51;;;;;;;;;;;9.90;99.90;;;;;;5113080;28;20397;-54
2022/10/02 02:33:51;;;;;;;;;;;9.90;99.90;;;;;;5111101;28;20375;-54
2022/10/02 02:36:20;;;;;;;;;;;9.90;99.90;;;;;;5057535;28;19955;-54
2022/10/02 02:38:50;;;;;;;;;;;9.90;99.90;;;;;;5113468;27;19931;-54
2022/10/02 02:41:29;;;;;;;;;;;10.00;99.90;;;;;;5128863;27;19924;-54
2022/10/02 02:44:05;;;;;;;;;;;10.00;99.90;;;;;;5113419;28;20445;-55
2022/10/02 02:47:02;;;;;;;;;;;10.00;99.90;;;;;;5112524;28;19930;-55
2022/10/02 02:49:26;;;;;;;;;;;10.00;99.90;;;;;;5112867;28;19923;-58
2022/10/02 02:51:58;;;;;;;;;;;10.10;99.90;;;;;;5112834;28;19924;-55
2022/10/02 02:54:29;;;;;;;;;;;10.10;99.90;;;;;;5112596;28;19924;-54
2022/10/02 02:56:59;;;;;;;;;;;10.10;99.90;;;;;;5112651;28;20489;-54
2022/10/02 02:59:27;;;;;;;;;;;10.00;99.90;;;;;;5110966;28;20201;-54
2022/10/02 03:01:55;;;;;;;;;;;10.10;99.90;;;;;;5093333;28;20295;-55
2022/10/02 03:04:22;;;;;;;;;;;10.10;99.90;;;;;;5111752;28;19924;-54
2022/10/02 03:06:51;;;;;;;;;;;10.10;99.90;;;;;;5112694;28;19924;-54
2022/10/02 03:09:19;;;;;;;;;;;10.10;99.90;;;;;;5118525;27;19935;-54
2022/10/02 03:12:05;;;;;;;;;;;10.10;99.90;;;;;;5132598;27;19924;-55
2022/10/02 03:14:33;;;;;;;;;;;10.10;99.90;;;;;;5127820;27;19923;-54
2022/10/02 03:17:18;;;;;;;;;;;10.00;99.90;;;;;;5112395;28;19924;-54
2022/10/02 03:20:04;;;;;;;;;;;10.10;99.90;;;;;;5112372;28;20371;-54
2022/10/02 03:22:45;;;;;;;;;;;10.10;99.90;;;;;;5112546;28;19924;-54
2022/10/02 03:25:18;;;;;;;;;;;10.10;99.90;;;;;;5094080;28;20279;-54
2022/10/02 03:28:02;;;;;;;;;;;10.10;99.90;;;;;;5112744;28;19924;-54
2022/10/02 03:30:30;;;;;;;;;;;10.10;99.90;;;;;;5111856;28;19928;-54
2022/10/02 03:32:59;;;;;;;;;;;10.00;99.90;;;;;;5112103;28;20382;-54
2022/10/02 03:35:28;;;;;;;;;;;10.00;99.90;;;;;;5111568;28;20363;-54
2022/10/02 03:37:58;;;;;;;;;;;9.90;99.90;;;;;;5112685;28;19923;-54
2022/10/02 03:40:26;;;;;;;;;;;10.00;99.90;;;;;;5108666;27;19923;-54
2022/10/02 03:42:57;;;;;;;;;;;10.00;99.90;;;;;;5132691;27;19924;-54
2022/10/02 03:45:25;;;;;;;;;;;10.00;99.90;;;;;;5114002;28;19938;-54
2022/10/02 03:48:12;;;;;;;;;;;10.00;99.90;;;;;;5114156;28;19928;-54
2022/10/02 03:50:40;;;;;;;;;;;9.90;99.90;;;;;;5132297;27;19930;-54
2022/10/02 03:53:28;;;;;;;;;;;9.90;99.90;;;;;;5132706;28;19924;-54
2022/10/02 03:56:03;;;;;;;;;;;9.90;99.90;;;;;;5097396;28;19924;-54
2022/10/02 03:58:31;;;;;;;;;;;9.90;99.90;;;;;;5112156;28;19928;-54
2022/10/02 04:00:58;;;;;;;;;;;9.90;99.90;;;;;;5112141;28;19924;-55
2022/10/02 04:03:46;;;;;;;;;;;9.90;99.90;;;;;;5111119;28;19924;-54
2022/10/02 04:06:24;;;;;;;;;;;9.80;99.90;;;;;;5112054;28;19924;-54
2022/10/02 04:09:02;;;;;;;;;;;9.90;99.90;;;;;;5113382;28;19924;-54
2022/10/02 04:11:32;;;;;;;;;;;9.90;99.90;;;;;;5132080;28;19924;-55
2022/10/02 04:14:05;;;;;;;;;;;9.90;99.90;;;;;;5130138;27;19923;-54
2022/10/02 04:16:56;;;;;;;;;;;9.90;99.90;;;;;;5115962;28;19924;-54
2022/10/02 04:19:34;;;;;;;;;;;9.90;99.90;;;;;;5115575;28;19924;-54
2022/10/02 04:22:22;;;;;;;;;;;10.00;99.90;;;;;;5114754;28;20406;-54
2022/10/02 04:25:12;;;;;;;;;;;10.00;99.90;;;;;;5115300;28;19931;-54
2022/10/02 04:27:47;;;;;;;;;;;10.00;99.90;;;;;;5107826;28;19927;-54
2022/10/02 04:30:19;;;;;;;;;;;10.00;99.90;;;;;;5115544;28;19924;-54
2022/10/02 04:32:47;;;;;;;;;;;10.00;99.90;;;;;;5114211;28;19924;-54
2022/10/02 04:35:36;;;;;;;;;;;9.90;99.90;;;;;;5115646;28;19931;-54
2022/10/02 04:38:06;;;;;;;;;;;9.90;99.90;;;;;;5115682;28;19931;-54
2022/10/02 04:40:52;;;;;;;;;;;9.90;99.90;;;;;;5117087;27;19949;-54
2022/10/02 04:43:38;;;;;;;;;;;9.90;99.90;;;;;;5114038;28;19931;-55
2022/10/02 04:46:23;;;;;;;;;;;9.90;99.90;;;;;;5114822;28;19924;-54
2022/10/02 04:49:09;;;;;;;;;;;9.90;99.90;;;;;;5094999;28;19928;-54
2022/10/02 04:51:36;;;;;;;;;;;9.90;99.90;;;;;;5092429;28;19931;-54
2022/10/02 04:54:04;;;;;;;;;;;9.90;99.90;;;;;;5091769;28;19928;-54
2022/10/02 04:56:50;;;;;;;;;;;9.90;99.90;;;;;;5099287;28;20108;-54
2022/10/02 04:59:30;;;;;;;;;;;9.80;99.90;;;;;;5111824;28;19931;-54
2022/10/02 05:02:02;;;;;;;;;;;9.80;99.90;;;;;;5088895;28;19932;-54
2022/10/02 05:04:42;;;;;;;;;;;9.80;99.90;;;;;;5089248;28;19935;-54
2022/10/02 05:07:28;;;;;;;;;;;9.70;99.90;;;;;;5105515;28;19923;-55
2022/10/02 05:10:14;;;;;;;;;;;9.70;99.90;;;;;;5104467;27;19924;-54
2022/10/02 05:13:01;;;;;;;;;;;9.60;99.90;;;;;;5112107;27;20513;-54
2022/10/02 05:15:39;;;;;;;;;;;9.60;99.90;;;;;;5108342;27;19924;-54
2022/10/02 05:18:25;;;;;;;;;;;9.50;99.90;;;;;;5105738;28;19924;-54
2022/10/02 05:20:58;;;;;;;;;;;9.50;99.90;;;;;;5107770;28;19931;-54
2022/10/02 05:23:28;;;;;;;;;;;9.50;99.90;;;;;;5109598;27;19973;-54
2022/10/02 05:26:09;;;;;;;;;;;9.40;99.90;;;;;;5111344;27;19932;-54
2022/10/02 05:28:55;;;;;;;;;;;9.40;99.90;;;;;;5104708;28;19943;-55
2022/10/02 05:31:23;;;;;;;;;;;9.40;99.90;;;;;;5108654;28;19924;-54
2022/10/02 05:33:53;;;;;;;;;;;9.30;99.90;;;;;;5115204;27;19923;-54
2022/10/02 05:36:40;;;;;;;;;;;9.30;99.90;;;;;;5129489;27;19925;-54
2022/10/02 05:39:15;;;;;;;;;;;9.30;99.90;;;;;;5116678;27;19946;-54
2022/10/02 05:42:01;;;;;;;;;;;9.30;99.90;;;;;;5110360;27;19954;-54
2022/10/02 05:44:34;;;;;;;;;;;9.20;99.90;;;;;;5104639;27;19925;-55
2022/10/02 05:47:14;;;;;;;;;;;9.20;99.90;;;;;;5124904;27;19939;-54
2022/10/02 05:49:54;;;;;;;;;;;9.10;99.90;;;;;;5075659;28;19935;-54
2022/10/02 05:52:31;;;;;;;;;;;9.10;99.90;;;;;;5090872;28;20366;-54
2022/10/02 05:55:02;;;;;;;;;;;9.10;99.90;;;;;;5079823;28;20375;-55
2022/10/02 05:57:32;;;;;;;;;;;9.00;99.90;;;;;;5114835;27;19924;-54
2022/10/02 06:00:03;;;;;;;;;;;9.00;99.90;;;;;;5127080;27;19943;-55
2022/10/02 06:02:47;;;;;;;;;;;8.90;99.90;;;;;;5108659;28;19923;-55
2022/10/02 06:05:14;;;;;;;;;;;8.90;99.90;;;;;;5108519;28;19924;-54
2022/10/02 06:07:44;;;;;;;;;;;8.80;99.90;;;;;;5093077;28;19928;-55
2022/10/02 06:10:41;;;;;;;;;;;8.80;99.90;;;;;;5123888;27;19928;-54
2022/10/02 06:13:12;;;;;;;;;;;8.80;99.90;;;;;;5077712;27;19920;-54
2022/10/02 06:15:49;;;;;;;;;;;8.70;99.90;;;;;;5127849;27;20383;-54
2022/10/02 06:18:20;;;;;;;;;;;8.70;99.90;;;;;;5096916;28;19934;-54
2022/10/02 06:20:52;;;;;;;;;;;8.70;99.90;;;;;;5107177;28;20236;-54
2022/10/02 06:23:19;;;;;;;;;;;9.60;99.90;;;;;;5113016;27;20378;-54
2022/10/02 06:25:51;;;;;;;;;;;8.60;99.90;;;;;;5127973;27;19946;-54
2022/10/02 06:28:25;;;;;;;;;;;8.60;99.90;;;;;;5109978;28;20256;-55
2022/10/02 06:31:00;;;;;;;;;;;8.60;99.90;;;;;;5109451;28;19924;-54
2022/10/02 06:33:30;;;;;;;;;;;8.50;99.90;;;;;;5106658;27;19924;-55
2022/10/02 06:36:16;;;;;;;;;;;8.50;99.90;;;;;;5074187;28;19930;-54
2022/10/02 06:39:03;;;;;;;;;;;8.50;99.90;;;;;;5088598;27;19935;-54
2022/10/02 06:41:46;;;;;;;;;;;8.60;99.90;;;;;;5129018;27;19924;-54
2022/10/02 06:44:17;;;;;;;;;;;8.60;99.90;;;;;;5118285;27;19942;-54
2022/10/02 06:46:45;;;;;;;;;;;8.60;99.90;;;;;;5128980;27;20392;-55
2022/10/02 06:49:17;;;;;;;;;;;8.70;99.90;;;;;;5107840;27;19947;-54
2022/10/02 06:51:47;;;;;;;;;;;8.70;99.90;;;;;;5099540;28;19924;-54
2022/10/02 06:54:20;;;;;;;;;;;8.80;99.90;;;;;;5072433;28;19924;-54
2022/10/02 06:56:57;;;;;;;;;;;8.80;99.90;;;;;;5097684;28;20410;-54
2022/10/02 06:59:27;;;;;;;;;;;8.90;99.90;;;;;;5101496;28;19932;-54
2022/10/02 07:01:55;;;;;;;;;;;9.00;99.90;;;;;;5098121;28;19924;-54
2022/10/02 07:04:33;;;;;;;;;;;9.10;99.90;;;;;;5097488;28;19935;-54
2022/10/02 07:07:01;;;;;;;;;;;9.10;99.90;;;;;;5078514;28;19924;-54
2022/10/02 07:09:28;;;;;;;;;;;9.20;99.90;;;;;;5083389;28;19931;-54
2022/10/02 07:11:56;;;;;;;;;;;9.20;99.90;;;;;;5082448;28;20391;-54
2022/10/02 07:14:36;;;;;;;;;;;9.30;99.90;;;;;;5109286;27;19924;-54
2022/10/02 07:17:22;;;;;;;;;;;9.40;99.90;;;;;;5090740;28;19923;-55
2022/10/02 07:20:09;;;;;;;;;;;9.50;99.90;;;;;;5087241;28;19932;-54
2022/10/02 07:22:48;;;;;;;;;;;9.50;99.90;;;;;;5092197;28;19928;-54
2022/10/02 07:25:28;;;;;;;;;;;9.60;99.90;;;;;;5104488;28;19930;-54
2022/10/02 07:28:11;;;;;;;;;;;9.70;99.90;;;;;;5104801;28;19924;-55
2022/10/02 07:30:42;;;;;;;;;;;9.80;99.90;;;;;;5103556;28;19924;-54
2022/10/02 07:33:19;;;;;;;;;;;9.90;99.90;;;;;;5096429;27;19934;-54
2022/10/02 07:35:50;;;;;;;;;;;9.90;99.90;;;;;;5089977;28;19930;-55
2022/10/02 07:38:42;;;;;;;;;;;10.10;99.90;;;;;;5102601;28;19930;-55
2022/10/02 07:41:16;;;;;;;;;;;10.20;99.90;;;;;;5080157;28;20289;-55
2022/10/02 07:44:02;;;;;;;;;;;10.30;99.90;;;;;;5089577;28;20330;-55
2022/10/02 07:46:29;;;;;;;;;;;10.50;99.90;;;;;;5105750;28;20280;-55
2022/10/02 07:49:12;;;;;;;;;;;10.70;99.90;;;;;;5118987;27;19928;-55
2022/10/02 07:51:47;;;;;;;;;;;10.90;99.90;;;;;;5108447;28;20379;-55
2022/10/02 07:54:18;;;;;;;;;;;11.10;99.90;;;;;;5082139;28;19924;-55
2022/10/02 07:56:47;;;;;;;;;;;11.30;99.90;;;;;;5110642;28;20370;-55
2022/10/02 07:59:16;;;;;;;;;;;11.40;99.90;;;;;;5082710;28;19924;-55
2022/10/02 08:01:45;;;;;;;;;;;11.50;99.90;;;;;;5106634;28;19924;-55
2022/10/02 08:04:15;;;;;;;;;;;11.60;99.90;;;;;;5118484;27;19927;-55
2022/10/02 08:06:45;;;;;;;;;;;11.60;99.90;;;;;;5090154;28;19932;-55
2022/10/02 08:09:15;;;;;;;;;;;11.60;99.90;;;;;;5114871;27;19933;-55
2022/10/02 08:11:48;;;;;;;;;;;11.50;99.90;;;;;;5106410;27;19927;-55
2022/10/02 08:14:25;;;;;;;;;;;11.50;99.90;;;;;;5121969;27;20281;-55
2022/10/02 08:16:55;;;;;;;;;;;11.40;99.90;;;;;;5132741;27;19935;-55
2022/10/02 08:19:29;;;;;;;;;;;11.40;99.90;;;;;;5092795;28;19931;-55
2022/10/02 08:21:59;;;;;;;;;;;11.50;99.90;;;;;;5111158;28;19943;-55
2022/10/02 08:24:30;;;;;;;;;;;11.50;99.90;;;;;;5118585;27;19927;-56
2022/10/02 08:27:01;;;;;;;;;;;11.50;99.90;;;;;;5108710;28;19928;-55
2022/10/02 08:29:38;;;;;;;;;;;11.60;99.90;;;;;;5097359;27;20222;-55
2022/10/02 08:32:10;;;;;;;;;;;11.70;99.90;;;;;;5121934;27;20681;-56
2022/10/02 08:34:38;;;;;;;;;;;11.70;99.90;;;;;;5123936;27;19923;-55
2022/10/02 08:37:12;;;;;;;;;;;11.80;99.90;;;;;;5111489;27;19928;-55
2022/10/02 08:39:40;;;;;;;;;;;11.80;99.90;;;;;;5120600;27;19923;-55
2022/10/02 08:42:28;;;;;;;;;;;11.90;99.90;;;;;;5116763;27;19924;-55
2022/10/02 08:45:01;;;;;;;;;;;12.00;99.90;;;;;;5111810;28;19928;-55
2022/10/02 08:47:48;;;;;;;;;;;12.10;99.90;;;;;;5111778;28;19923;-55
2022/10/02 08:50:34;;;;;;;;;;;12.20;99.90;;;;;;5109158;28;19931;-55
2022/10/02 08:53:17;;;;;;;;;;;12.30;99.90;;;;;;5094675;27;19927;-56
2022/10/02 08:55:46;;;;;;;;;;;12.30;99.90;;;;;;5099843;27;19924;-55
2022/10/02 08:58:31;;;;;;;;;;;12.50;99.90;;;;;;5083153;28;19927;-55
2022/10/02 09:01:22;;;;;;;;;;;12.60;99.90;;;;;;5108631;28;19924;-55
2022/10/02 09:03:53;;;;;;;;;;;12.70;99.90;;;;;;5105935;27;19935;-55
2022/10/02 09:06:23;;;;;;;;;;;12.80;99.90;;;;;;5127675;27;19923;-55
2022/10/02 09:08:58;;;;;;;;;;;12.80;99.90;;;;;;5091216;27;19935;-55
2022/10/02 09:11:29;;;;;;;;;;;12.90;99.90;;;;;;5112912;27;20382;-55
2022/10/02 09:14:08;;;;;;;;;;;13.10;99.90;;;;;;5109111;27;19927;-55
2022/10/02 09:16:45;;;;;;;;;;;13.20;99.90;;;;;;5088328;28;20299;-55
2022/10/02 09:19:31;;;;;;;;;;;13.30;99.90;;;;;;5089830;28;20314;-55
2022/10/02 09:22:10;;;;;;;;;;;13.40;99.90;;;;;;5079290;28;20284;-55
2022/10/02 09:25:03;;;;;;;;;;;13.40;99.90;;;;;;5087088;28;19931;-55
2022/10/02 09:27:50;;;;;;;;;;;13.50;99.90;;;;;;5102880;28;19928;-56
2022/10/02 09:30:25;;;;;;;;;;;13.70;99.90;;;;;;5107999;28;19931;-55
2022/10/02 09:33:05;;;;;;;;;;;13.80;99.90;;;;;;5107829;28;19924;-56
2022/10/02 09:35:51;;;;;;;;;;;13.90;99.90;;;;;;5085617;28;19924;-56
2022/10/02 09:38:28;;;;;;;;;;;14.00;99.90;;;;;;5078436;28;19935;-55
2022/10/02 09:41:06;;;;;;;;;;;14.10;99.90;;;;;;5124999;27;19931;-55
2022/10/02 09:43:53;;;;;;;;;;;14.10;99.90;;;;;;5105702;27;19927;-55
2022/10/02 09:46:30;;;;;;;;;;;14.20;99.90;;;;;;5105458;28;19930;-55
2022/10/02 09:49:19;;;;;;;;;;;14.30;99.90;;;;;;5103190;28;19924;-55
2022/10/02 09:51:46;;;;;;;;;;;14.40;99.90;;;;;;5101882;28;19931;-55
2022/10/02 09:54:26;;;;;;;;;;;14.60;99.90;;;;;;5109567;27;19950;-55
2022/10/02 09:56:58;;;;;;;;;;;14.70;99.90;;;;;;5095909;28;19935;-55
2022/10/02 09:59:31;;;;;;;;;;;14.70;99.90;;;;;;5101958;28;19925;-56
2022/10/02 10:02:05;;;;;;;;;;;14.80;99.90;;;;;;5072250;28;19924;-55
2022/10/02 10:04:47;;;;;;;;;;;14.90;99.90;;;;;;5104600;28;20271;-55
2022/10/02 10:07:47;;;;;;;;;;;15.00;99.90;;;;;;5110602;28;19924;-55
2022/10/02 10:10:32;;;;;;;;;;;15.10;99.90;;;;;;5123946;27;19950;-55
2022/10/02 10:13:06;;;;;;;;;;;15.30;99.90;;;;;;5098294;27;19924;-55
2022/10/02 10:15:33;;;;;;;;;;;15.50;99.90;;;;;;5131070;27;19954;-55
2022/10/02 10:18:19;;;;;;;;;;;15.60;99.90;;;;;;5116156;27;19924;-55
2022/10/02 10:20:50;;;;;;;;;;;15.60;99.90;;;;;;5090125;28;19931;-55
2022/10/02 10:23:35;;;;;;;;;;;15.60;99.90;;;;;;5103850;27;19931;-55
2022/10/02 10:26:22;;;;;;;;;;;15.60;99.90;;;;;;5130966;27;19976;-55
2022/10/02 10:29:03;;;;;;;;;;;15.40;99.90;;;;;;5079327;28;19924;-55
2022/10/02 10:31:49;;;;;;;;;;;15.30;99.90;;;;;;5070163;28;19932;-55
2022/10/02 10:34:20;;;;;;;;;;;15.10;99.90;;;;;;5109026;27;19930;-55
2022/10/02 10:40:03;;;;;;;;;;;14.80;99.90;;;;;;5095007;27;19935;-55
2022/10/02 10:42:38;;;;;;;;;;;14.70;99.90;;;;;;5094850;28;19928;-55
2022/10/02 10:45:44;;;;;;;;;;;14.70;99.90;;;;;;5086587;28;19924;-55
2022/10/02 10:48:20;;;;;;;;;;;14.70;99.90;;;;;;5090576;28;19928;-55
2022/10/02 10:50:54;;;;;;;;;;;14.80;99.90;;;;;;5086703;28;19958;-55
2022/10/02 10:53:40;;;;;;;;;;;14.80;99.90;;;;;;5092676;27;19927;-55
2022/10/02 10:56:16;;;;;;;;;;;14.80;99.90;;;;;;5108642;27;19934;-55
2022/10/02 10:58:51;;;;;;;;;;;14.90;99.90;;;;;;5127236;27;19931;-55
2022/10/02 11:01:21;;;;;;;;;;;14.90;99.90;;;;;;5127180;27;19938;-55
2022/10/02 11:04:00;;;;;;;;;;;15.10;99.90;;;;;;5121381;27;19927;-56
2022/10/02 11:06:28;;;;;;;;;;;15.20;99.90;;;;;;5118723;27;19928;-55
2022/10/02 11:09:12;;;;;;;;;;;15.40;99.90;;;;;;5108298;27;19931;-55
2022/10/02 11:11:51;;;;;;;;;;;15.90;99.90;;;;;;5127339;27;19923;-55
2022/10/02 11:14:42;;;;;;;;;;;16.20;99.90;;;;;;5126933;27;20505;-55
2022/10/02 11:17:13;;;;;;;;;;;16.40;99.90;;;;;;5078653;27;19935;-55
2022/10/02 11:19:43;;;;;;;;;;;16.60;99.90;;;;;;5072169;28;19924;-55
2022/10/02 11:22:11;;;;;;;;;;;16.70;99.90;;;;;;5068039;28;20292;-56
2022/10/02 11:24:38;;;;;;;;;;;16.90;99.90;;;;;;5112642;27;20412;-56
2022/10/02 11:27:09;;;;;;;;;;;17.00;99.90;;;;;;5108404;27;19927;-56
2022/10/02 11:29:39;;;;;;;;;;;17.10;99.90;;;;;;5105885;28;19927;-55
2022/10/02 11:32:30;;;;;;;;;;;17.20;99.90;;;;;;5105996;28;20330;-55
2022/10/02 11:35:02;;;;;;;;;;;17.10;99.90;;;;;;5121848;27;19931;-57
2022/10/02 11:37:41;;;;;;;;;;;16.90;99.90;;;;;;5123094;27;19924;-55
2022/10/02 11:40:38;;;;;;;;;;;16.70;99.90;;;;;;5118753;27;19928;-55
2022/10/02 11:43:27;;;;;;;;;;;16.60;99.90;;;;;;5105405;27;19935;-56
2022/10/02 11:46:10;;;;;;;;;;;16.40;99.90;;;;;;5126509;27;19924;-55
2022/10/02 11:48:57;;;;;;;;;;;16.30;99.90;;;;;;5108000;28;19924;-55
2022/10/02 11:51:36;;;;;;;;;;;16.50;99.90;;;;;;5085359;28;19928;-55
2022/10/02 11:54:22;;;;;;;;;;;16.80;99.90;;;;;;5102731;28;19923;-56
2022/10/02 11:57:08;;;;;;;;;;;17.00;99.90;;;;;;5126415;28;19927;-55
2022/10/02 11:59:42;;;;;;;;;;;17.10;99.90;;;;;;5067461;28;19946;-55
2022/10/02 12:02:24;;;;;;;;;;;17.00;99.90;;;;;;5085437;28;19924;-56
2022/10/02 12:05:12;;;;;;;;;;;16.90;99.90;;;;;;5086981;28;19924;-56
2022/10/02 12:07:39;;;;;;;;;;;16.60;99.90;;;;;;5089459;28;19924;-56
2022/10/02 12:10:09;;;;;;;;;;;16.40;99.90;;;;;;5117745;28;19934;-55
2022/10/02 12:12:47;;;;;;;;;;;16.20;99.90;;;;;;5126151;28;19937;-55
2022/10/02 12:15:41;;;;;;;;;;;16.00;99.90;;;;;;5125965;28;19931;-55
2022/10/02 12:18:17;;;;;;;;;;;15.90;99.90;;;;;;5112797;28;20294;-55
2022/10/02 12:27:14;;;;;;;;;;;15.50;99.90;;;;;;5013481;28;19929;-55
2022/10/02 12:29:42;;;;;;;;;;;15.50;99.90;;;;;;5085280;28;19924;-55
2022/10/02 12:32:28;;;;;;;;;;;15.50;99.90;;;;;;5094444;28;19928;-55
2022/10/02 12:34:56;;;;;;;;;;;15.50;99.90;;;;;;5106830;28;20711;-56
2022/10/02 12:37:26;;;;;;;;;;;15.60;99.90;;;;;;5109508;28;19930;-55
2022/10/02 12:40:05;;;;;;;;;;;15.50;99.90;;;;;;5119873;27;19927;-55
2022/10/02 12:42:35;;;;;;;;;;;15.60;99.90;;;;;;5129312;27;19927;-55
2022/10/02 12:45:03;;;;;;;;;;;15.70;99.90;;;;;;5111244;27;19934;-56
2022/10/02 12:47:39;;;;;;;;;;;15.70;99.90;;;;;;5125758;27;19923;-55
2022/10/02 12:50:20;;;;;;;;;;;15.80;99.90;;;;;;5095879;28;19958;-55
2022/10/02 12:52:48;;;;;;;;;;;15.90;99.90;;;;;;5088199;28;20371;-55
2022/10/02 12:55:35;;;;;;;;;;;15.90;99.90;;;;;;5125109;27;19932;-55
2022/10/02 12:58:11;;;;;;;;;;;16.00;99.90;;;;;;5121594;27;19930;-55
2022/10/02 13:00:38;;;;;;;;;;;16.10;99.90;;;;;;5108729;28;19930;-55
2022/10/02 13:03:21;;;;;;;;;;;16.20;99.90;;;;;;5108723;28;19934;-55
2022/10/02 13:05:51;;;;;;;;;;;16.30;99.90;;;;;;5091661;28;19935;-55
2022/10/02 13:08:24;;;;;;;;;;;16.40;99.90;;;;;;5079984;28;19927;-55
2022/10/02 13:10:56;;;;;;;;;;;16.40;99.90;;;;;;5106978;27;19935;-55
2022/10/02 13:13:26;;;;;;;;;;;16.40;99.90;;;;;;5092847;27;19928;-55
2022/10/02 13:15:58;;;;;;;;;;;16.30;99.90;;;;;;5129095;27;19934;-55
2022/10/02 13:18:42;;;;;;;;;;;16.30;99.90;;;;;;5117562;27;19949;-54
2022/10/02 13:21:19;;;;;;;;;;;16.20;99.90;;;;;;5088910;28;19924;-55
2022/10/02 13:23:57;;;;;;;;;;;16.10;99.90;;;;;;5098910;27;19930;-54
2022/10/02 13:26:30;;;;;;;;;;;16.10;99.90;;;;;;5129089;27;19924;-54
2022/10/02 13:29:05;;;;;;;;;;;16.10;99.90;;;;;;5113030;27;19928;-55
2022/10/02 13:31:51;;;;;;;;;;;16.10;99.90;;;;;;5107100;28;19924;-55
2022/10/02 13:34:24;;;;;;;;;;;16.20;99.90;;;;;;5111681;27;20532;-55
2022/10/02 13:37:04;;;;;;;;;;;16.10;99.90;;;;;;5087988;28;19924;-54
2022/10/02 13:39:47;;;;;;;;;;;16.10;99.90;;;;;;5114722;27;19923;-55
2022/10/02 13:42:25;;;;;;;;;;;16.10;99.90;;;;;;5128833;27;19946;-56
2022/10/02 13:45:04;;;;;;;;;;;16.10;99.90;;;;;;5128352;27;19931;-56
2022/10/02 13:47:35;;;;;;;;;;;16.30;99.90;;;;;;5106158;28;19924;-55
2022/10/02 13:50:02;;;;;;;;;;;16.40;99.90;;;;;;5104367;28;19928;-55
2022/10/02 13:52:30;;;;;;;;;;;16.50;99.90;;;;;;5087242;28;20374;-56
2022/10/02 13:54:57;;;;;;;;;;;16.70;99.90;;;;;;5105762;27;19936;-56
2022/10/02 13:57:30;;;;;;;;;;;16.80;99.90;;;;;;5086288;28;19928;-56
2022/10/02 14:00:09;;;;;;;;;;;16.90;99.90;;;;;;5087349;28;19928;-56
2022/10/02 14:02:52;;;;;;;;;;;17.00;99.90;;;;;;5087276;28;20318;-56
2022/10/02 14:05:42;;;;;;;;;;;16.90;99.90;;;;;;5118908;27;20343;-56
2022/10/02 14:08:13;;;;;;;;;;;16.90;99.90;;;;;;5085061;27;19923;-56
2022/10/02 14:10:40;;;;;;;;;;;16.90;99.90;;;;;;5124826;27;19923;-55
2022/10/02 14:13:07;;;;;;;;;;;16.90;99.90;;;;;;5128080;27;19923;-56
2022/10/02 14:15:42;;;;;;;;;;;16.80;99.90;;;;;;5107191;28;19924;-56
2022/10/02 14:18:30;;;;;;;;;;;16.80;99.90;;;;;;5107257;28;19927;-56
2022/10/02 14:20:57;;;;;;;;;;;16.80;99.90;;;;;;5086407;28;19924;-56
2022/10/02 14:23:37;;;;;;;;;;;16.90;99.90;;;;;;5090666;27;19924;-56
2022/10/02 14:26:04;;;;;;;;;;;17.00;99.90;;;;;;5127418;27;20421;-56
2022/10/02 14:28:32;;;;;;;;;;;17.10;99.90;;;;;;5116153;27;19927;-56
2022/10/02 14:31:06;;;;;;;;;;;17.30;99.90;;;;;;5107299;28;20485;-56
2022/10/02 14:33:42;;;;;;;;;;;17.40;99.90;;;;;;5100623;27;19927;-56
2022/10/02 14:36:12;;;;;;;;;;;17.50;99.90;;;;;;5104419;27;19924;-55
2022/10/02 14:38:53;;;;;;;;;;;17.60;99.90;;;;;;5089631;28;19924;-56
2022/10/02 14:41:29;;;;;;;;;;;17.60;99.90;;;;;;5097245;28;19928;-55
2022/10/02 14:44:26;;;;;;;;;;;17.50;99.90;;;;;;5098878;27;20037;-56
2022/10/02 14:46:58;;;;;;;;;;;17.40;99.90;;;;;;5087471;27;19924;-56
2022/10/02 14:49:31;;;;;;;;;;;17.30;99.90;;;;;;5124191;27;19924;-56
2022/10/02 14:52:13;;;;;;;;;;;17.10;99.90;;;;;;5098936;27;19928;-56
2022/10/02 14:54:41;;;;;;;;;;;16.90;99.90;;;;;;5111057;27;19934;-56
2022/10/02 14:57:23;;;;;;;;;;;16.80;99.90;;;;;;5127379;27;20002;-56
2022/10/02 15:00:09;;;;;;;;;;;16.60;99.90;;;;;;5088822;28;19924;-56
2022/10/02 15:02:47;;;;;;;;;;;16.60;99.90;;;;;;5089377;28;19948;-56
2022/10/02 15:05:36;;;;;;;;;;;16.40;99.90;;;;;;5103079;28;19928;-56
2022/10/02 15:08:10;;;;;;;;;;;16.40;99.90;;;;;;5093179;28;19927;-56
2022/10/02 15:10:39;;;;;;;;;;;16.40;99.90;;;;;;5093432;28;19924;-56
2022/10/02 15:13:28;;;;;;;;;;;16.40;99.90;;;;;;5106586;28;19931;-54
2022/10/02 15:19:01;;;;;;;;;;;16.20;99.90;;;;;;5101972;28;19931;-57
2022/10/02 15:21:36;;;;;;;;;;;16.00;99.90;;;;;;5080880;28;19935;-56
2022/10/02 15:24:22;;;;;;;;;;;15.90;99.90;;;;;;5099608;27;20335;-56
2022/10/02 15:27:08;;;;;;;;;;;15.80;99.90;;;;;;5126438;27;19958;-56